sensor_id;sensor_type;location;lat;lon;timestamp;P1;durP1;ratioP1;P2;durP2;ratioP2
48588;SDS011;34369;51.174;6.738;2023-02-11T00:01:11;48.40;;;44.47;;
48588;SDS011;34369;51.174;6.738;2023-02-11T00:03:53;47.13;;;43.43;;
48588;SDS011;34369;51.174;6.738;2023-02-11T00:06:28;48.97;;;45.07;;
48588;SDS011;34369;51.174;6.738;2023-02-11T00:09:03;46.97;;;43.37;;
48588;SDS011;34369;51.174;6.738;2023-02-11T00:11:36;48.87;;;45.07;;
48588;SDS011;34369;51.174;6.738;2023-02-11T00:14:10;48.77;;;44.67;;
48588;SDS011;34369;51.174;6.738;2023-02-11T00:16:42;47.13;;;43.57;;
48588;SDS011;34369;51.174;6.738;2023-02-11T00:19:16;47.57;;;43.53;;
48588;SDS011;34369;51.174;6.738;2023-02-11T00:21:49;48.73;;;44.87;;
48588;SDS011;34369;51.174;6.738;2023-02-11T00:24:23;46.20;;;42.37;;
48588;SDS011;34369;51.174;6.738;2023-02-11T00:26:55;47.77;;;43.97;;
48588;SDS011;34369;51.174;6.738;2023-02-11T00:29:28;50.30;;;46.10;;
48588;SDS011;34369;51.174;6.738;2023-02-11T00:32:00;49.03;;;44.97;;
48588;SDS011;34369;51.174;6.738;2023-02-11T00:34:35;48.13;;;44.23;;
48588;SDS011;34369;51.174;6.738;2023-02-11T00:37:08;46.70;;;43.00;;
48588;SDS011;34369;51.174;6.738;2023-02-11T00:39:41;48.57;;;44.67;;
48588;SDS011;34369;51.174;6.738;2023-02-11T00:42:13;47.67;;;43.93;;
48588;SDS011;34369;51.174;6.738;2023-02-11T00:44:45;48.77;;;44.97;;
48588;SDS011;34369;51.174;6.738;2023-02-11T00:47:17;47.83;;;43.90;;
48588;SDS011;34369;51.174;6.738;2023-02-11T00:49:50;49.50;;;45.50;;
48588;SDS011;34369;51.174;6.738;2023-02-11T00:52:22;49.40;;;45.30;;
48588;SDS011;34369;51.174;6.738;2023-02-11T00:54:54;50.03;;;46.03;;
48588;SDS011;34369;51.174;6.738;2023-02-11T00:57:26;49.13;;;45.20;;
48588;SDS011;34369;51.174;6.738;2023-02-11T00:59:58;48.23;;;44.27;;
48588;SDS011;34369;51.174;6.738;2023-02-11T01:02:30;50.20;;;46.10;;
48588;SDS011;34369;51.174;6.738;2023-02-11T01:05:04;49.33;;;45.40;;
48588;SDS011;34369;51.174;6.738;2023-02-11T01:07:37;49.00;;;45.10;;
48588;SDS011;34369;51.174;6.738;2023-02-11T01:10:09;46.53;;;42.80;;
48588;SDS011;34369;51.174;6.738;2023-02-11T01:12:41;48.90;;;44.80;;
48588;SDS011;34369;51.174;6.738;2023-02-11T01:15:13;50.87;;;46.57;;
48588;SDS011;34369;51.174;6.738;2023-02-11T01:17:47;50.23;;;46.30;;
48588;SDS011;34369;51.174;6.738;2023-02-11T01:20:22;48.13;;;44.13;;
48588;SDS011;34369;51.174;6.738;2023-02-11T01:22:56;48.93;;;45.03;;
48588;SDS011;34369;51.174;6.738;2023-02-11T01:25:28;47.80;;;44.03;;
48588;SDS011;34369;51.174;6.738;2023-02-11T01:28:00;48.03;;;44.23;;
48588;SDS011;34369;51.174;6.738;2023-02-11T01:30:32;46.87;;;43.20;;
48588;SDS011;34369;51.174;6.738;2023-02-11T01:33:04;49.60;;;45.67;;
48588;SDS011;34369;51.174;6.738;2023-02-11T01:35:38;50.70;;;46.60;;
48588;SDS011;34369;51.174;6.738;2023-02-11T01:38:13;50.50;;;46.30;;
48588;SDS011;34369;51.174;6.738;2023-02-11T01:43:20;50.87;;;46.67;;
48588;SDS011;34369;51.174;6.738;2023-02-11T01:45:57;49.00;;;45.20;;
48588;SDS011;34369;51.174;6.738;2023-02-11T01:48:35;49.87;;;46.07;;
48588;SDS011;34369;51.174;6.738;2023-02-11T01:51:15;48.77;;;44.70;;
48588;SDS011;34369;51.174;6.738;2023-02-11T01:53:51;52.87;;;48.37;;
48588;SDS011;34369;51.174;6.738;2023-02-11T01:56:43;50.43;;;46.43;;
48588;SDS011;34369;51.174;6.738;2023-02-11T01:59:37;49.03;;;45.23;;
48588;SDS011;34369;51.174;6.738;2023-02-11T02:02:18;50.10;;;45.90;;
48588;SDS011;34369;51.174;6.738;2023-02-11T02:04:55;50.70;;;46.57;;
48588;SDS011;34369;51.174;6.738;2023-02-11T02:07:35;51.43;;;47.00;;
48588;SDS011;34369;51.174;6.738;2023-02-11T02:10:14;49.17;;;45.33;;
48588;SDS011;34369;51.174;6.738;2023-02-11T02:12:51;49.77;;;45.80;;
48588;SDS011;34369;51.174;6.738;2023-02-11T02:15:25;50.77;;;46.77;;
48588;SDS011;34369;51.174;6.738;2023-02-11T02:18:01;50.55;;;46.50;;
48588;SDS011;34369;51.174;6.738;2023-02-11T02:27:36;50.07;;;46.03;;
48588;SDS011;34369;51.174;6.738;2023-02-11T02:30:46;48.28;;;44.42;;
48588;SDS011;34369;51.174;6.738;2023-02-11T02:33:45;50.63;;;46.53;;
48588;SDS011;34369;51.174;6.738;2023-02-11T02:36:27;50.57;;;46.47;;
48588;SDS011;34369;51.174;6.738;2023-02-11T02:39:05;49.80;;;45.80;;
48588;SDS011;34369;51.174;6.738;2023-02-11T02:41:42;49.90;;;45.80;;
48588;SDS011;34369;51.174;6.738;2023-02-11T02:44:17;49.80;;;45.80;;
48588;SDS011;34369;51.174;6.738;2023-02-11T02:46:50;51.67;;;47.57;;
48588;SDS011;34369;51.174;6.738;2023-02-11T02:49:23;49.67;;;45.47;;
48588;SDS011;34369;51.174;6.738;2023-02-11T02:52:04;49.33;;;45.23;;
48588;SDS011;34369;51.174;6.738;2023-02-11T02:54:51;47.23;;;43.50;;
48588;SDS011;34369;51.174;6.738;2023-02-11T02:58:04;49.55;;;45.25;;
48588;SDS011;34369;51.174;6.738;2023-02-11T03:01:01;50.07;;;46.17;;
48588;SDS011;34369;51.174;6.738;2023-02-11T03:03:40;50.33;;;46.33;;
48588;SDS011;34369;51.174;6.738;2023-02-11T03:06:22;49.73;;;45.73;;
48588;SDS011;34369;51.174;6.738;2023-02-11T03:09:03;48.93;;;45.13;;
48588;SDS011;34369;51.174;6.738;2023-02-11T03:11:40;50.53;;;46.63;;
48588;SDS011;34369;51.174;6.738;2023-02-11T03:14:13;48.97;;;44.77;;
48588;SDS011;34369;51.174;6.738;2023-02-11T03:16:47;47.47;;;43.57;;
48588;SDS011;34369;51.174;6.738;2023-02-11T03:19:21;49.40;;;45.67;;
48588;SDS011;34369;51.174;6.738;2023-02-11T03:21:58;47.80;;;44.10;;
48588;SDS011;34369;51.174;6.738;2023-02-11T03:24:34;50.93;;;46.67;;
48588;SDS011;34369;51.174;6.738;2023-02-11T03:27:09;46.77;;;42.83;;
48588;SDS011;34369;51.174;6.738;2023-02-11T03:29:50;48.77;;;44.87;;
48588;SDS011;34369;51.174;6.738;2023-02-11T03:32:28;50.60;;;46.50;;
48588;SDS011;34369;51.174;6.738;2023-02-11T03:35:06;48.17;;;44.30;;
48588;SDS011;34369;51.174;6.738;2023-02-11T03:37:49;49.33;;;45.13;;
48588;SDS011;34369;51.174;6.738;2023-02-11T03:40:28;47.77;;;43.80;;
48588;SDS011;34369;51.174;6.738;2023-02-11T03:43:09;48.17;;;44.33;;
48588;SDS011;34369;51.174;6.738;2023-02-11T03:45:46;49.50;;;45.53;;
48588;SDS011;34369;51.174;6.738;2023-02-11T03:48:21;49.80;;;45.77;;
48588;SDS011;34369;51.174;6.738;2023-02-11T03:50:56;47.83;;;44.03;;
48588;SDS011;34369;51.174;6.738;2023-02-11T03:53:33;47.13;;;43.15;;
48588;SDS011;34369;51.174;6.738;2023-02-11T03:56:09;47.13;;;43.30;;
48588;SDS011;34369;51.174;6.738;2023-02-11T03:58:47;46.40;;;42.70;;
48588;SDS011;34369;51.174;6.738;2023-02-11T04:01:20;45.17;;;41.63;;
48588;SDS011;34369;51.174;6.738;2023-02-11T04:03:52;46.70;;;42.97;;
48588;SDS011;34369;51.174;6.738;2023-02-11T04:06:24;46.83;;;43.13;;
48588;SDS011;34369;51.174;6.738;2023-02-11T04:08:57;46.73;;;43.13;;
48588;SDS011;34369;51.174;6.738;2023-02-11T04:11:29;47.07;;;42.83;;
48588;SDS011;34369;51.174;6.738;2023-02-11T04:14:01;49.17;;;45.20;;
48588;SDS011;34369;51.174;6.738;2023-02-11T04:16:33;46.63;;;42.83;;
48588;SDS011;34369;51.174;6.738;2023-02-11T04:19:05;49.23;;;45.53;;
48588;SDS011;34369;51.174;6.738;2023-02-11T04:21:36;47.73;;;43.90;;
48588;SDS011;34369;51.174;6.738;2023-02-11T04:24:10;47.63;;;43.87;;
48588;SDS011;34369;51.174;6.738;2023-02-11T04:26:42;48.33;;;44.40;;
48588;SDS011;34369;51.174;6.738;2023-02-11T04:29:13;46.27;;;42.80;;
48588;SDS011;34369;51.174;6.738;2023-02-11T04:31:45;48.47;;;44.57;;
48588;SDS011;34369;51.174;6.738;2023-02-11T04:34:18;45.47;;;41.87;;
48588;SDS011;34369;51.174;6.738;2023-02-11T04:36:50;49.90;;;45.80;;
48588;SDS011;34369;51.174;6.738;2023-02-11T04:39:23;46.83;;;42.47;;
48588;SDS011;34369;51.174;6.738;2023-02-11T04:41:55;45.93;;;42.17;;
48588;SDS011;34369;51.174;6.738;2023-02-11T04:44:27;45.57;;;41.60;;
48588;SDS011;34369;51.174;6.738;2023-02-11T04:46:59;46.43;;;42.77;;
48588;SDS011;34369;51.174;6.738;2023-02-11T04:49:31;44.87;;;41.37;;
48588;SDS011;34369;51.174;6.738;2023-02-11T04:52:03;44.70;;;41.20;;
48588;SDS011;34369;51.174;6.738;2023-02-11T04:54:37;46.97;;;42.77;;
48588;SDS011;34369;51.174;6.738;2023-02-11T04:57:09;47.80;;;43.90;;
48588;SDS011;34369;51.174;6.738;2023-02-11T04:59:41;46.10;;;42.47;;
48588;SDS011;34369;51.174;6.738;2023-02-11T05:02:13;47.13;;;43.30;;
48588;SDS011;34369;51.174;6.738;2023-02-11T05:04:45;47.23;;;43.33;;
48588;SDS011;34369;51.174;6.738;2023-02-11T05:07:17;44.63;;;41.17;;
48588;SDS011;34369;51.174;6.738;2023-02-11T05:09:51;44.30;;;40.63;;
48588;SDS011;34369;51.174;6.738;2023-02-11T05:12:22;46.13;;;42.17;;
48588;SDS011;34369;51.174;6.738;2023-02-11T05:14:54;47.40;;;43.60;;
48588;SDS011;34369;51.174;6.738;2023-02-11T05:17:26;47.17;;;43.27;;
48588;SDS011;34369;51.174;6.738;2023-02-11T05:19:58;48.97;;;45.03;;
48588;SDS011;34369;51.174;6.738;2023-02-11T05:22:30;46.67;;;42.87;;
48588;SDS011;34369;51.174;6.738;2023-02-11T05:25:04;47.07;;;43.07;;
48588;SDS011;34369;51.174;6.738;2023-02-11T05:27:36;48.03;;;44.07;;
48588;SDS011;34369;51.174;6.738;2023-02-11T05:30:09;47.70;;;43.77;;
48588;SDS011;34369;51.174;6.738;2023-02-11T05:32:42;47.13;;;43.37;;
48588;SDS011;34369;51.174;6.738;2023-02-11T05:35:13;47.67;;;43.97;;
48588;SDS011;34369;51.174;6.738;2023-02-11T05:37:46;50.27;;;46.37;;
48588;SDS011;34369;51.174;6.738;2023-02-11T05:40:19;47.73;;;43.93;;
48588;SDS011;34369;51.174;6.738;2023-02-11T05:42:51;51.27;;;47.03;;
48588;SDS011;34369;51.174;6.738;2023-02-11T05:45:23;49.60;;;45.70;;
48588;SDS011;34369;51.174;6.738;2023-02-11T05:47:55;48.27;;;44.43;;
48588;SDS011;34369;51.174;6.738;2023-02-11T05:50:28;48.57;;;44.50;;
48588;SDS011;34369;51.174;6.738;2023-02-11T05:53:00;48.17;;;44.07;;
48588;SDS011;34369;51.174;6.738;2023-02-11T05:55:33;47.10;;;43.10;;
48588;SDS011;34369;51.174;6.738;2023-02-11T05:58:06;47.50;;;43.40;;
48588;SDS011;34369;51.174;6.738;2023-02-11T06:00:38;49.40;;;45.20;;
48588;SDS011;34369;51.174;6.738;2023-02-11T06:03:10;48.03;;;44.00;;
48588;SDS011;34369;51.174;6.738;2023-02-11T06:05:42;51.20;;;46.80;;
48588;SDS011;34369;51.174;6.738;2023-02-11T06:08:15;51.17;;;46.60;;
48588;SDS011;34369;51.174;6.738;2023-02-11T06:10:49;50.20;;;46.10;;
48588;SDS011;34369;51.174;6.738;2023-02-11T06:13:21;51.20;;;46.87;;
48588;SDS011;34369;51.174;6.738;2023-02-11T06:15:56;50.03;;;45.77;;
48588;SDS011;34369;51.174;6.738;2023-02-11T06:18:28;48.33;;;44.37;;
48588;SDS011;34369;51.174;6.738;2023-02-11T06:21:05;50.00;;;45.67;;
48588;SDS011;34369;51.174;6.738;2023-02-11T06:23:38;49.77;;;45.70;;
48588;SDS011;34369;51.174;6.738;2023-02-11T06:26:15;49.77;;;45.60;;
48588;SDS011;34369;51.174;6.738;2023-02-11T06:28:49;49.83;;;45.63;;
48588;SDS011;34369;51.174;6.738;2023-02-11T06:31:21;48.50;;;44.40;;
48588;SDS011;34369;51.174;6.738;2023-02-11T06:33:53;49.43;;;45.00;;
48588;SDS011;34369;51.174;6.738;2023-02-11T06:36:25;50.57;;;46.70;;
48588;SDS011;34369;51.174;6.738;2023-02-11T06:38:57;52.80;;;48.10;;
48588;SDS011;34369;51.174;6.738;2023-02-11T06:41:30;54.17;;;49.57;;
48588;SDS011;34369;51.174;6.738;2023-02-11T06:44:03;49.57;;;45.30;;
48588;SDS011;34369;51.174;6.738;2023-02-11T06:46:35;49.80;;;45.37;;
48588;SDS011;34369;51.174;6.738;2023-02-11T06:49:07;51.37;;;47.17;;
48588;SDS011;34369;51.174;6.738;2023-02-11T06:51:40;50.23;;;45.87;;
48588;SDS011;34369;51.174;6.738;2023-02-11T06:54:12;50.47;;;46.03;;
48588;SDS011;34369;51.174;6.738;2023-02-11T06:56:46;50.77;;;45.63;;
48588;SDS011;34369;51.174;6.738;2023-02-11T06:59:19;51.83;;;47.50;;
48588;SDS011;34369;51.174;6.738;2023-02-11T07:01:51;51.60;;;47.20;;
48588;SDS011;34369;51.174;6.738;2023-02-11T07:04:23;50.67;;;46.33;;
48588;SDS011;34369;51.174;6.738;2023-02-11T07:06:55;52.00;;;47.70;;
48588;SDS011;34369;51.174;6.738;2023-02-11T07:09:27;51.17;;;46.80;;
48588;SDS011;34369;51.174;6.738;2023-02-11T07:12:01;52.67;;;48.23;;
48588;SDS011;34369;51.174;6.738;2023-02-11T07:14:33;52.33;;;47.83;;
48588;SDS011;34369;51.174;6.738;2023-02-11T07:17:06;50.77;;;46.63;;
48588;SDS011;34369;51.174;6.738;2023-02-11T07:19:39;52.53;;;48.03;;
48588;SDS011;34369;51.174;6.738;2023-02-11T07:22:11;51.77;;;47.37;;
48588;SDS011;34369;51.174;6.738;2023-02-11T07:24:43;52.57;;;47.97;;
48588;SDS011;34369;51.174;6.738;2023-02-11T07:27:17;53.57;;;48.40;;
48588;SDS011;34369;51.174;6.738;2023-02-11T07:29:50;50.07;;;45.37;;
48588;SDS011;34369;51.174;6.738;2023-02-11T07:32:22;52.20;;;47.73;;
48588;SDS011;34369;51.174;6.738;2023-02-11T07:34:54;52.83;;;48.43;;
48588;SDS011;34369;51.174;6.738;2023-02-11T07:37:26;48.93;;;44.73;;
48588;SDS011;34369;51.174;6.738;2023-02-11T07:39:59;51.67;;;47.03;;
48588;SDS011;34369;51.174;6.738;2023-02-11T07:42:34;52.13;;;47.23;;
48588;SDS011;34369;51.174;6.738;2023-02-11T07:45:08;50.17;;;45.65;;
48588;SDS011;34369;51.174;6.738;2023-02-11T07:47:41;53.10;;;48.07;;
48588;SDS011;34369;51.174;6.738;2023-02-11T07:50:15;51.80;;;46.93;;
48588;SDS011;34369;51.174;6.738;2023-02-11T07:52:47;50.40;;;45.93;;
48588;SDS011;34369;51.174;6.738;2023-02-11T07:55:20;50.53;;;45.93;;
48588;SDS011;34369;51.174;6.738;2023-02-11T07:57:54;50.70;;;45.93;;
48588;SDS011;34369;51.174;6.738;2023-02-11T08:00:26;51.10;;;46.23;;
48588;SDS011;34369;51.174;6.738;2023-02-11T08:02:58;52.70;;;47.57;;
48588;SDS011;34369;51.174;6.738;2023-02-11T08:05:30;52.67;;;47.77;;
48588;SDS011;34369;51.174;6.738;2023-02-11T08:08:03;50.20;;;45.77;;
48588;SDS011;34369;51.174;6.738;2023-02-11T08:10:35;51.93;;;47.53;;
48588;SDS011;34369;51.174;6.738;2023-02-11T08:13:09;52.60;;;47.33;;
48588;SDS011;34369;51.174;6.738;2023-02-11T08:15:41;50.87;;;46.33;;
48588;SDS011;34369;51.174;6.738;2023-02-11T08:18:14;53.90;;;48.93;;
48588;SDS011;34369;51.174;6.738;2023-02-11T08:20:46;53.60;;;48.20;;
48588;SDS011;34369;51.174;6.738;2023-02-11T08:23:19;53.17;;;48.30;;
48588;SDS011;34369;51.174;6.738;2023-02-11T08:25:51;54.83;;;49.67;;
48588;SDS011;34369;51.174;6.738;2023-02-11T08:28:25;53.97;;;48.77;;
48588;SDS011;34369;51.174;6.738;2023-02-11T08:30:57;57.73;;;52.27;;
48588;SDS011;34369;51.174;6.738;2023-02-11T08:33:36;54.30;;;48.87;;
48588;SDS011;34369;51.174;6.738;2023-02-11T08:36:10;55.40;;;50.13;;
48588;SDS011;34369;51.174;6.738;2023-02-11T08:38:44;57.00;;;51.57;;
48588;SDS011;34369;51.174;6.738;2023-02-11T08:41:17;56.87;;;51.47;;
48588;SDS011;34369;51.174;6.738;2023-02-11T08:43:51;55.57;;;50.23;;
48588;SDS011;34369;51.174;6.738;2023-02-11T08:46:23;54.00;;;48.70;;
48588;SDS011;34369;51.174;6.738;2023-02-11T08:48:56;51.50;;;46.70;;
48588;SDS011;34369;51.174;6.738;2023-02-11T08:51:29;53.63;;;48.30;;
48588;SDS011;34369;51.174;6.738;2023-02-11T08:54:02;53.97;;;48.97;;
48588;SDS011;34369;51.174;6.738;2023-02-11T08:56:38;54.15;;;48.70;;
48588;SDS011;34369;51.174;6.738;2023-02-11T08:59:13;54.57;;;49.20;;
48588;SDS011;34369;51.174;6.738;2023-02-11T09:01:46;54.38;;;48.95;;
48588;SDS011;34369;51.174;6.738;2023-02-11T09:04:19;54.57;;;49.27;;
48588;SDS011;34369;51.174;6.738;2023-02-11T09:06:52;54.40;;;49.10;;
48588;SDS011;34369;51.174;6.738;2023-02-11T09:09:24;54.97;;;49.50;;
48588;SDS011;34369;51.174;6.738;2023-02-11T09:11:56;54.70;;;49.43;;
48588;SDS011;34369;51.174;6.738;2023-02-11T09:14:31;57.33;;;51.70;;
48588;SDS011;34369;51.174;6.738;2023-02-11T09:17:04;56.97;;;51.57;;
48588;SDS011;34369;51.174;6.738;2023-02-11T09:19:36;57.53;;;51.40;;
48588;SDS011;34369;51.174;6.738;2023-02-11T09:22:09;56.57;;;51.07;;
48588;SDS011;34369;51.174;6.738;2023-02-11T09:24:42;55.10;;;49.90;;
48588;SDS011;34369;51.174;6.738;2023-02-11T09:27:14;58.30;;;52.67;;
48588;SDS011;34369;51.174;6.738;2023-02-11T09:29:47;56.70;;;50.97;;
48588;SDS011;34369;51.174;6.738;2023-02-11T09:32:19;54.27;;;48.87;;
48588;SDS011;34369;51.174;6.738;2023-02-11T09:34:52;54.47;;;49.27;;
48588;SDS011;34369;51.174;6.738;2023-02-11T09:37:24;55.57;;;50.07;;
48588;SDS011;34369;51.174;6.738;2023-02-11T09:39:56;54.63;;;49.47;;
48588;SDS011;34369;51.174;6.738;2023-02-11T09:42:39;58.87;;;52.70;;
48588;SDS011;34369;51.174;6.738;2023-02-11T09:45:18;56.40;;;51.10;;
48588;SDS011;34369;51.174;6.738;2023-02-11T09:47:54;55.97;;;50.37;;
48588;SDS011;34369;51.174;6.738;2023-02-11T09:50:30;57.00;;;51.57;;
48588;SDS011;34369;51.174;6.738;2023-02-11T09:53:05;56.53;;;50.92;;
48588;SDS011;34369;51.174;6.738;2023-02-11T09:55:45;56.27;;;50.40;;
48588;SDS011;34369;51.174;6.738;2023-02-11T09:58:23;56.80;;;51.13;;
48588;SDS011;34369;51.174;6.738;2023-02-11T10:03:42;53.87;;;48.80;;
48588;SDS011;34369;51.174;6.738;2023-02-11T10:06:34;56.50;;;50.70;;
48588;SDS011;34369;51.174;6.738;2023-02-11T10:09:28;56.73;;;51.23;;
48588;SDS011;34369;51.174;6.738;2023-02-11T10:12:31;57.93;;;52.23;;
48588;SDS011;34369;51.174;6.738;2023-02-11T10:15:20;57.80;;;52.00;;
48588;SDS011;34369;51.174;6.738;2023-02-11T10:18:09;55.83;;;50.47;;
48588;SDS011;34369;51.174;6.738;2023-02-11T10:21:05;56.55;;;51.20;;
48588;SDS011;34369;51.174;6.738;2023-02-11T10:23:49;56.87;;;51.43;;
48588;SDS011;34369;51.174;6.738;2023-02-11T10:26:26;55.53;;;50.10;;
48588;SDS011;34369;51.174;6.738;2023-02-11T10:29:05;58.23;;;52.00;;
48588;SDS011;34369;51.174;6.738;2023-02-11T10:31:51;56.03;;;50.80;;
48588;SDS011;34369;51.174;6.738;2023-02-11T10:34:26;55.07;;;49.80;;
48588;SDS011;34369;51.174;6.738;2023-02-11T10:36:58;58.23;;;51.97;;
48588;SDS011;34369;51.174;6.738;2023-02-11T10:39:30;60.17;;;54.33;;
48588;SDS011;34369;51.174;6.738;2023-02-11T10:42:04;58.90;;;53.20;;
48588;SDS011;34369;51.174;6.738;2023-02-11T10:44:41;60.20;;;54.43;;
48588;SDS011;34369;51.174;6.738;2023-02-11T10:47:28;57.03;;;51.63;;
48588;SDS011;34369;51.174;6.738;2023-02-11T10:50:17;56.90;;;51.50;;
48588;SDS011;34369;51.174;6.738;2023-02-11T10:53:00;56.42;;;50.60;;
48588;SDS011;34369;51.174;6.738;2023-02-11T10:55:48;56.37;;;50.83;;
48588;SDS011;34369;51.174;6.738;2023-02-11T10:58:24;55.40;;;50.03;;
48588;SDS011;34369;51.174;6.738;2023-02-11T11:00:59;59.30;;;53.15;;
48588;SDS011;34369;51.174;6.738;2023-02-11T11:03:33;56.50;;;51.10;;
48588;SDS011;34369;51.174;6.738;2023-02-11T11:06:10;59.80;;;53.90;;
48588;SDS011;34369;51.174;6.738;2023-02-11T11:08:44;55.73;;;50.43;;
48588;SDS011;34369;51.174;6.738;2023-02-11T11:11:18;57.67;;;52.20;;
48588;SDS011;34369;51.174;6.738;2023-02-11T11:13:55;56.80;;;51.40;;
48588;SDS011;34369;51.174;6.738;2023-02-11T11:16:30;57.03;;;51.73;;
48588;SDS011;34369;51.174;6.738;2023-02-11T11:19:18;57.50;;;51.90;;
48588;SDS011;34369;51.174;6.738;2023-02-11T11:21:54;58.67;;;53.03;;
48588;SDS011;34369;51.174;6.738;2023-02-11T11:24:28;56.57;;;51.17;;
48588;SDS011;34369;51.174;6.738;2023-02-11T11:29:36;54.40;;;49.30;;
48588;SDS011;34369;51.174;6.738;2023-02-11T11:32:17;58.50;;;52.73;;
48588;SDS011;34369;51.174;6.738;2023-02-11T11:34:53;56.33;;;50.97;;
48588;SDS011;34369;51.174;6.738;2023-02-11T11:37:33;56.17;;;50.77;;
48588;SDS011;34369;51.174;6.738;2023-02-11T11:40:08;57.08;;;51.60;;
48588;SDS011;34369;51.174;6.738;2023-02-11T11:43:04;56.93;;;51.60;;
48588;SDS011;34369;51.174;6.738;2023-02-11T11:45:52;55.47;;;50.20;;
48588;SDS011;34369;51.174;6.738;2023-02-11T11:48:27;57.80;;;52.37;;
48588;SDS011;34369;51.174;6.738;2023-02-11T11:51:08;58.97;;;53.43;;
48588;SDS011;34369;51.174;6.738;2023-02-11T11:53:44;58.77;;;52.73;;
48588;SDS011;34369;51.174;6.738;2023-02-11T11:56:23;60.13;;;54.00;;
48588;SDS011;34369;51.174;6.738;2023-02-11T11:58:59;57.27;;;51.70;;
48588;SDS011;34369;51.174;6.738;2023-02-11T12:01:35;55.78;;;50.08;;
48588;SDS011;34369;51.174;6.738;2023-02-11T12:04:24;56.50;;;51.07;;
48588;SDS011;34369;51.174;6.738;2023-02-11T12:07:35;55.07;;;49.87;;
48588;SDS011;34369;51.174;6.738;2023-02-11T12:13:26;58.03;;;52.23;;
48588;SDS011;34369;51.174;6.738;2023-02-11T12:16:15;57.17;;;51.57;;
48588;SDS011;34369;51.174;6.738;2023-02-11T12:22:17;52.30;;;47.50;;
48588;SDS011;34369;51.174;6.738;2023-02-11T12:25:08;56.37;;;50.97;;
48588;SDS011;34369;51.174;6.738;2023-02-11T12:28:13;56.60;;;50.97;;
48588;SDS011;34369;51.174;6.738;2023-02-11T12:31:07;57.80;;;52.40;;
48588;SDS011;34369;51.174;6.738;2023-02-11T12:37:13;56.70;;;51.00;;
48588;SDS011;34369;51.174;6.738;2023-02-11T12:39:55;56.33;;;50.70;;
48588;SDS011;34369;51.174;6.738;2023-02-11T12:42:42;59.23;;;53.70;;
48588;SDS011;34369;51.174;6.738;2023-02-11T12:45:45;57.20;;;51.60;;
48588;SDS011;34369;51.174;6.738;2023-02-11T12:49:06;57.07;;;51.57;;
48588;SDS011;34369;51.174;6.738;2023-02-11T12:52:05;55.60;;;50.13;;
48588;SDS011;34369;51.174;6.738;2023-02-11T12:54:52;56.17;;;50.67;;
48588;SDS011;34369;51.174;6.738;2023-02-11T12:57:30;55.47;;;50.10;;
48588;SDS011;34369;51.174;6.738;2023-02-11T13:00:06;56.47;;;50.67;;
48588;SDS011;34369;51.174;6.738;2023-02-11T13:02:47;59.20;;;53.03;;
48588;SDS011;34369;51.174;6.738;2023-02-11T13:05:26;57.07;;;51.23;;
48588;SDS011;34369;51.174;6.738;2023-02-11T13:08:07;57.23;;;51.63;;
48588;SDS011;34369;51.174;6.738;2023-02-11T13:10:45;58.63;;;52.87;;
48588;SDS011;34369;51.174;6.738;2023-02-11T13:13:21;58.28;;;52.65;;
48588;SDS011;34369;51.174;6.738;2023-02-11T13:18:41;55.03;;;49.80;;
48588;SDS011;34369;51.174;6.738;2023-02-11T13:21:28;56.37;;;51.07;;
48588;SDS011;34369;51.174;6.738;2023-02-11T13:24:12;55.90;;;50.30;;
48588;SDS011;34369;51.174;6.738;2023-02-11T13:26:59;57.90;;;51.87;;
48588;SDS011;34369;51.174;6.738;2023-02-11T13:29:54;57.63;;;52.17;;
48588;SDS011;34369;51.174;6.738;2023-02-11T13:33:03;57.13;;;51.63;;
48588;SDS011;34369;51.174;6.738;2023-02-11T13:36:08;56.43;;;50.87;;
48588;SDS011;34369;51.174;6.738;2023-02-11T13:38:51;57.55;;;52.15;;
48588;SDS011;34369;51.174;6.738;2023-02-11T13:41:34;55.80;;;50.30;;
48588;SDS011;34369;51.174;6.738;2023-02-11T13:47:04;55.77;;;50.17;;
48588;SDS011;34369;51.174;6.738;2023-02-11T13:49:37;56.00;;;50.47;;
48588;SDS011;34369;51.174;6.738;2023-02-11T13:52:17;57.23;;;51.53;;
48588;SDS011;34369;51.174;6.738;2023-02-11T13:54:56;60.37;;;54.17;;
48588;SDS011;34369;51.174;6.738;2023-02-11T13:57:35;58.87;;;53.13;;
48588;SDS011;34369;51.174;6.738;2023-02-11T14:03:25;59.30;;;53.08;;
48588;SDS011;34369;51.174;6.738;2023-02-11T14:06:22;57.43;;;51.50;;
48588;SDS011;34369;51.174;6.738;2023-02-11T14:09:34;57.10;;;51.35;;
48588;SDS011;34369;51.174;6.738;2023-02-11T14:12:19;55.23;;;49.63;;
48588;SDS011;34369;51.174;6.738;2023-02-11T14:15:16;59.20;;;53.00;;
48588;SDS011;34369;51.174;6.738;2023-02-11T14:17:58;56.63;;;51.03;;
48588;SDS011;34369;51.174;6.738;2023-02-11T14:20:34;56.20;;;50.77;;
48588;SDS011;34369;51.174;6.738;2023-02-11T14:23:20;56.63;;;50.47;;
48588;SDS011;34369;51.174;6.738;2023-02-11T14:26:02;56.40;;;50.93;;
48588;SDS011;34369;51.174;6.738;2023-02-11T14:29:05;56.63;;;51.23;;
48588;SDS011;34369;51.174;6.738;2023-02-11T14:31:48;55.80;;;50.00;;
48588;SDS011;34369;51.174;6.738;2023-02-11T14:34:39;57.60;;;51.67;;
48588;SDS011;34369;51.174;6.738;2023-02-11T14:37:25;55.70;;;50.13;;
48588;SDS011;34369;51.174;6.738;2023-02-11T14:40:09;58.47;;;52.63;;
48588;SDS011;34369;51.174;6.738;2023-02-11T14:42:52;55.93;;;50.03;;
48588;SDS011;34369;51.174;6.738;2023-02-11T14:45:26;58.03;;;52.10;;
48588;SDS011;34369;51.174;6.738;2023-02-11T14:48:01;59.13;;;53.07;;
48588;SDS011;34369;51.174;6.738;2023-02-11T14:50:39;56.07;;;50.30;;
48588;SDS011;34369;51.174;6.738;2023-02-11T14:53:16;57.37;;;51.57;;
48588;SDS011;34369;51.174;6.738;2023-02-11T14:55:51;55.87;;;50.13;;
48588;SDS011;34369;51.174;6.738;2023-02-11T14:58:26;55.90;;;50.50;;
48588;SDS011;34369;51.174;6.738;2023-02-11T15:01:00;55.80;;;49.93;;
48588;SDS011;34369;51.174;6.738;2023-02-11T15:03:38;57.87;;;51.77;;
48588;SDS011;34369;51.174;6.738;2023-02-11T15:06:14;58.73;;;52.67;;
48588;SDS011;34369;51.174;6.738;2023-02-11T15:11:23;54.23;;;48.93;;
48588;SDS011;34369;51.174;6.738;2023-02-11T15:13:57;55.50;;;50.13;;
48588;SDS011;34369;51.174;6.738;2023-02-11T15:16:39;56.10;;;50.40;;
48588;SDS011;34369;51.174;6.738;2023-02-11T15:19:17;57.88;;;52.22;;
48588;SDS011;34369;51.174;6.738;2023-02-11T15:21:53;55.97;;;50.17;;
48588;SDS011;34369;51.174;6.738;2023-02-11T15:24:26;56.97;;;51.20;;
48588;SDS011;34369;51.174;6.738;2023-02-11T15:27:01;56.77;;;51.10;;
48588;SDS011;34369;51.174;6.738;2023-02-11T15:29:44;58.77;;;52.63;;
48588;SDS011;34369;51.174;6.738;2023-02-11T15:32:19;57.03;;;51.13;;
48588;SDS011;34369;51.174;6.738;2023-02-11T15:34:53;57.33;;;51.77;;
48588;SDS011;34369;51.174;6.738;2023-02-11T15:37:27;57.00;;;51.50;;
48588;SDS011;34369;51.174;6.738;2023-02-11T15:40:07;57.20;;;51.50;;
48588;SDS011;34369;51.174;6.738;2023-02-11T15:42:51;57.37;;;51.50;;
48588;SDS011;34369;51.174;6.738;2023-02-11T15:45:27;56.20;;;50.77;;
48588;SDS011;34369;51.174;6.738;2023-02-11T15:48:05;54.63;;;49.40;;
48588;SDS011;34369;51.174;6.738;2023-02-11T15:50:40;57.47;;;51.87;;
48588;SDS011;34369;51.174;6.738;2023-02-11T15:53:19;57.40;;;51.83;;
48588;SDS011;34369;51.174;6.738;2023-02-11T15:55:58;57.13;;;51.10;;